Time;durP1;ratioP1;P1;durP2;ratioP2;P2;SDS_P1;SDS_P2;PMS_P1;PMS_P2;Temp;Humidity;BMP_temperature;BMP_pressure;BME280_temperature;BME280_humidity;BME280_pressure;Samples;Min_cycle;Max_cycle;Signal;HPM_P1;HPM_P2
2022/01/12 00:00:27;;;;;;;24.30;13.40;;;3.40;99.90;;;;;;5035612;28;20427;-48
2022/01/12 00:02:54;;;;;;;28.27;12.37;;;3.40;99.90;;;;;;5039623;28;20250;-48
2022/01/12 00:05:22;;;;;;;26.93;12.57;;;3.40;99.90;;;;;;5027513;28;20207;-47
2022/01/12 00:07:50;;;;;;;22.93;11.90;;;3.40;99.90;;;;;;5035446;28;20322;-48
2022/01/12 00:10:19;;;;;;;24.20;12.63;;;3.40;99.90;;;;;;5035308;28;20203;-48
2022/01/12 00:12:46;;;;;;;25.23;12.93;;;3.40;99.90;;;;;;5024098;28;20236;-48
2022/01/12 00:15:15;;;;;;;25.43;12.80;;;3.30;99.90;;;;;;5035502;28;20205;-48
2022/01/12 00:17:41;;;;;;;21.33;12.90;;;3.40;99.90;;;;;;5031940;28;20409;-48
2022/01/12 00:20:09;;;;;;;25.43;12.60;;;3.40;99.90;;;;;;5054819;28;20204;-48
2022/01/12 00:22:38;;;;;;;24.47;13.00;;;3.40;99.90;;;;;;5030582;28;20231;-47
2022/01/12 00:25:23;;;;;;;22.20;12.60;;;3.40;99.90;;;;;;5031382;28;20303;-45
2022/01/12 00:33:21;;;;;;;26.73;12.50;;;3.40;99.90;;;;;;5006241;28;20946;-45
2022/01/12 00:35:50;;;;;;;29.67;14.67;;;3.40;99.90;;;;;;5046035;28;20294;-45
2022/01/12 00:38:19;;;;;;;30.70;14.17;;;3.40;99.90;;;;;;5026386;28;22853;-46
2022/01/12 00:40:49;;;;;;;33.07;15.00;;;3.40;99.90;;;;;;5037461;28;20209;-45
2022/01/12 00:43:18;;;;;;;32.90;15.00;;;3.40;99.90;;;;;;5048111;28;20260;-45
2022/01/12 00:45:46;;;;;;;27.57;14.10;;;3.40;99.90;;;;;;5024148;28;20216;-45
2022/01/12 00:48:14;;;;;;;22.63;13.20;;;3.40;99.90;;;;;;5022725;28;20873;-45
2022/01/12 00:50:42;;;;;;;28.50;13.87;;;3.50;99.90;;;;;;5047256;28;20215;-45
2022/01/12 00:53:09;;;;;;;25.80;13.97;;;3.50;99.90;;;;;;5033163;28;20844;-45
2022/01/12 00:55:37;;;;;;;29.63;14.47;;;3.50;99.90;;;;;;5028745;28;20208;-45
2022/01/12 00:58:04;;;;;;;36.33;15.70;;;3.50;99.90;;;;;;5041131;28;20536;-46
2022/01/12 01:00:33;;;;;;;32.73;15.37;;;3.50;99.90;;;;;;5042284;28;20662;-45
2022/01/12 01:03:00;;;;;;;31.10;15.00;;;3.40;99.90;;;;;;5017108;28;20447;-45
2022/01/12 01:05:31;;;;;;;33.30;17.30;;;3.50;99.90;;;;;;5026758;28;20220;-45
2022/01/12 01:07:59;;;;;;;28.80;14.93;;;3.50;99.90;;;;;;5018391;28;20214;-45
2022/01/12 01:10:35;;;;;;;28.00;15.40;;;3.40;99.90;;;;;;5053620;28;20204;-45
2022/01/12 01:13:02;;;;;;;29.57;15.50;;;3.40;99.90;;;;;;5023593;28;20293;-45
2022/01/12 01:15:51;;;;;;;34.80;16.80;;;3.40;99.90;;;;;;5029121;28;20208;-45
2022/01/12 01:26:33;;;;;;;37.17;16.83;;;3.50;99.90;;;;;;5034588;28;20212;-45
2022/01/12 01:29:00;;;;;;;37.17;16.90;;;3.50;99.90;;;;;;5045636;28;20207;-45
2022/01/12 01:31:31;;;;;;;33.43;16.93;;;3.50;99.90;;;;;;5023597;28;20240;-45
2022/01/12 01:34:06;;;;;;;35.03;16.73;;;3.50;99.90;;;;;;5024707;28;20205;-45
2022/01/12 01:36:33;;;;;;;33.73;16.20;;;3.50;99.90;;;;;;5030041;28;20212;-45
2022/01/12 01:39:00;;;;;;;34.27;16.93;;;3.50;99.90;;;;;;5030077;28;20491;-46
2022/01/12 01:41:27;;;;;;;36.20;17.23;;;3.50;99.90;;;;;;5049253;28;20234;-45
2022/01/12 01:44:21;;;;;;;32.37;17.63;;;3.50;99.90;;;;;;5022272;28;20453;-45
2022/01/12 01:55:05;;;;;;;37.07;16.57;;;3.50;99.90;;;;;;5018401;28;20607;-45
2022/01/12 01:57:32;;;;;;;36.77;18.20;;;3.50;99.90;;;;;;5036808;28;20732;-46
2022/01/12 01:59:59;;;;;;;37.80;17.30;;;3.50;99.90;;;;;;5042388;28;20517;-45
2022/01/12 02:02:27;;;;;;;41.83;17.50;;;3.50;99.90;;;;;;5037679;28;20234;-45
2022/01/12 02:04:55;;;;;;;36.60;17.20;;;3.50;99.90;;;;;;5024731;28;20265;-45
2022/01/12 02:07:22;;;;;;;32.97;16.43;;;3.50;99.90;;;;;;5034721;28;20208;-46
2022/01/12 02:09:49;;;;;;;36.70;18.07;;;3.50;99.90;;;;;;5035694;28;20300;-45
2022/01/12 02:12:25;;;;;;;42.57;17.90;;;3.50;99.90;;;;;;5026062;28;20247;-45
2022/01/12 02:14:52;;;;;;;45.33;18.17;;;3.50;99.90;;;;;;5041813;28;20211;-46
2022/01/12 02:17:23;;;;;;;40.70;17.83;;;3.50;99.90;;;;;;5026022;28;20224;-45
2022/01/12 02:19:57;;;;;;;43.77;17.60;;;3.50;99.90;;;;;;5025002;28;20825;-45
2022/01/12 02:36:17;;;;;;;43.43;18.67;;;3.50;99.90;;;;;;5023980;28;20211;-51
2022/01/12 02:41:31;;;;;;;39.90;18.50;;;3.50;99.90;;;;;;5026581;28;20336;-50
2022/01/12 02:54:59;;;;;;;47.30;19.10;;;3.60;99.90;;;;;;5021377;28;20266;-51
2022/01/12 02:57:26;;;;;;;44.37;19.00;;;3.60;99.90;;;;;;5016281;28;20294;-51
2022/01/12 03:00:06;;;;;;;41.50;18.80;;;3.50;99.90;;;;;;5036260;28;20589;-50
2022/01/12 03:02:36;;;;;;;56.17;20.30;;;3.60;99.90;;;;;;5025698;28;20838;-50
2022/01/12 03:05:26;;;;;;;41.80;19.00;;;3.60;99.90;;;;;;5036228;28;20299;-50
2022/01/12 03:07:53;;;;;;;46.33;19.30;;;3.60;99.90;;;;;;5017978;28;20456;-51
2022/01/12 03:10:22;;;;;;;48.80;20.30;;;3.60;99.90;;;;;;5027329;28;20208;-50
2022/01/12 03:12:49;;;;;;;55.10;19.77;;;3.60;99.90;;;;;;5028505;28;20239;-51
2022/01/12 03:15:16;;;;;;;48.43;20.07;;;3.50;99.90;;;;;;5032569;28;20204;-50
2022/01/12 03:17:43;;;;;;;50.07;19.60;;;3.60;99.90;;;;;;5039585;28;20676;-51
2022/01/12 03:20:11;;;;;;;53.07;20.53;;;3.60;99.90;;;;;;5038072;28;20208;-51
2022/01/12 03:22:38;;;;;;;42.80;19.50;;;3.60;99.90;;;;;;5033290;28;20328;-50
2022/01/12 03:25:06;;;;;;;38.53;17.73;;;3.60;99.90;;;;;;5037550;28;20215;-51
2022/01/12 03:27:35;;;;;;;40.80;19.03;;;3.60;99.90;;;;;;5023214;28;20216;-50
2022/01/12 03:30:01;;;;;;;48.07;19.40;;;3.60;99.90;;;;;;5035934;28;20216;-48
2022/01/12 03:32:35;;;;;;;40.83;19.10;;;3.70;99.90;;;;;;5023709;28;20232;-48
2022/01/12 03:35:10;;;;;;;46.27;17.93;;;3.70;99.90;;;;;;5027411;28;20204;-48
2022/01/12 03:37:42;;;;;;;45.83;19.47;;;3.70;99.90;;;;;;5040907;28;20215;-48
2022/01/12 03:40:10;;;;;;;40.23;19.00;;;3.60;99.90;;;;;;5031306;28;20278;-48
2022/01/12 03:42:39;;;;;;;33.13;17.67;;;3.60;99.90;;;;;;5027762;28;20225;-48
2022/01/12 03:45:07;;;;;;;40.50;18.47;;;3.70;99.90;;;;;;5028828;28;20205;-49
2022/01/12 03:47:34;;;;;;;40.40;18.87;;;3.60;99.90;;;;;;5042286;28;20223;-48
2022/01/12 03:50:01;;;;;;;38.93;18.87;;;3.70;99.90;;;;;;5044223;28;20231;-48
2022/01/12 03:52:28;;;;;;;43.73;18.90;;;3.60;99.90;;;;;;5028537;28;20345;-49
2022/01/12 03:54:55;;;;;;;41.70;18.63;;;3.70;99.90;;;;;;5037314;28;20215;-48
2022/01/12 03:57:22;;;;;;;41.33;17.97;;;3.70;99.90;;;;;;5025943;28;20709;-48
2022/01/12 03:59:50;;;;;;;43.80;19.63;;;3.70;99.90;;;;;;5020841;28;20380;-48
2022/01/12 04:02:17;;;;;;;43.13;17.87;;;3.70;99.90;;;;;;5035974;28;20776;-48
2022/01/12 04:05:07;;;;;;;41.77;18.53;;;3.70;99.90;;;;;;5028244;28;20294;-49
2022/01/12 04:10:19;;;;;;;46.07;17.43;;;3.70;99.90;;;;;;5030921;28;20243;-48
2022/01/12 04:12:46;;;;;;;46.00;19.13;;;3.70;99.90;;;;;;5016626;28;20819;-48
2022/01/12 04:15:15;;;;;;;42.50;18.53;;;3.70;99.90;;;;;;5020682;28;20212;-47
2022/01/12 04:17:41;;;;;;;43.73;19.53;;;3.70;99.90;;;;;;5048732;28;20770;-48
2022/01/12 04:20:09;;;;;;;40.50;18.80;;;3.70;99.90;;;;;;5030278;28;20231;-48
2022/01/12 04:25:22;;;;;;;42.90;18.57;;;3.70;99.90;;;;;;5018607;28;20692;-44
2022/01/12 04:27:49;;;;;;;39.40;17.20;;;3.80;99.90;;;;;;5031979;28;20802;-44
2022/01/12 04:30:17;;;;;;;40.63;17.33;;;3.80;99.90;;;;;;5014721;28;20217;-44
2022/01/12 04:32:44;;;;;;;40.80;17.97;;;3.80;99.90;;;;;;5023321;28;20235;-44
2022/01/12 04:35:13;;;;;;;41.47;17.93;;;3.80;99.90;;;;;;5035300;28;20287;-44
2022/01/12 04:37:40;;;;;;;37.00;18.03;;;3.80;99.90;;;;;;5031125;28;20637;-44
2022/01/12 04:40:08;;;;;;;42.50;18.03;;;3.80;99.90;;;;;;5046616;28;20228;-44
2022/01/12 04:42:36;;;;;;;40.83;18.03;;;3.80;99.90;;;;;;5019457;28;20511;-44
2022/01/12 04:45:16;;;;;;;44.87;19.47;;;3.70;99.90;;;;;;5033786;28;20216;-44
2022/01/12 04:47:59;;;;;;;39.80;17.47;;;3.80;99.90;;;;;;5026953;28;20232;-44
2022/01/12 04:50:29;;;;;;;40.73;17.77;;;3.70;99.90;;;;;;5017972;28;20216;-44
2022/01/12 04:52:57;;;;;;;43.00;18.67;;;3.80;99.90;;;;;;5031554;28;20254;-44
2022/01/12 04:55:24;;;;;;;44.67;18.83;;;3.80;99.90;;;;;;5028102;28;20205;-44
2022/01/12 04:57:51;;;;;;;44.47;19.30;;;3.80;99.90;;;;;;5039103;28;20205;-44
2022/01/12 05:00:19;;;;;;;41.93;19.47;;;3.80;99.90;;;;;;5031759;28;20228;-44
2022/01/12 05:08:35;;;;;;;48.97;20.17;;;3.80;99.90;;;;;;5025607;28;20238;-44
2022/01/12 05:13:50;;;;;;;43.80;20.00;;;3.80;99.90;;;;;;5035957;28;20224;-44
2022/01/12 05:16:18;;;;;;;46.27;19.60;;;3.80;99.90;;;;;;5031545;28;20217;-44
2022/01/12 05:18:48;;;;;;;55.83;20.73;;;3.80;99.90;;;;;;5028289;28;21656;-44
2022/01/12 05:21:17;;;;;;;42.00;18.00;;;3.80;99.90;;;;;;5023925;28;20565;-44
2022/01/12 05:23:45;;;;;;;49.60;20.10;;;3.80;99.90;;;;;;5001868;28;20712;-44
2022/01/12 05:26:12;;;;;;;46.97;20.10;;;3.80;99.90;;;;;;5045236;28;20618;-44
2022/01/12 05:28:39;;;;;;;54.50;21.43;;;3.80;99.90;;;;;;5016750;28;20970;-45
2022/01/12 05:31:07;;;;;;;47.03;19.10;;;3.80;99.90;;;;;;5001571;28;22101;-44
2022/01/12 05:33:36;;;;;;;54.27;20.53;;;3.80;99.90;;;;;;5026190;28;20240;-44
2022/01/12 05:36:06;;;;;;;45.93;21.23;;;3.80;99.90;;;;;;5035060;28;20199;-44
2022/01/12 05:38:34;;;;;;;51.63;21.67;;;3.80;99.90;;;;;;5026064;28;20286;-44
2022/01/12 05:41:04;;;;;;;47.00;18.87;;;3.90;99.90;;;;;;5035943;28;21020;-44
2022/01/12 05:43:32;;;;;;;41.00;18.40;;;3.90;99.90;;;;;;5032862;28;20684;-44
2022/01/12 05:46:08;;;;;;;42.70;19.23;;;3.80;99.90;;;;;;5015835;28;20227;-44
2022/01/12 05:51:27;;;;;;;49.20;20.80;;;3.80;99.90;;;;;;4985379;28;20236;-48
2022/01/12 05:53:54;;;;;;;50.47;20.37;;;3.80;99.90;;;;;;5019325;28;20240;-49
2022/01/12 05:56:21;;;;;;;47.03;20.67;;;3.80;99.90;;;;;;5019613;28;20201;-48
2022/01/12 05:58:49;;;;;;;51.53;20.73;;;3.80;99.90;;;;;;5017918;28;20746;-49
2022/01/12 06:01:16;;;;;;;41.27;19.57;;;3.80;99.90;;;;;;5023733;28;20262;-49
2022/01/12 06:03:43;;;;;;;45.30;19.80;;;3.80;99.90;;;;;;4994126;28;20213;-49
2022/01/12 06:06:10;;;;;;;50.23;19.67;;;3.80;99.90;;;;;;5032091;28;20218;-48
2022/01/12 06:08:38;;;;;;;46.53;20.73;;;3.80;99.90;;;;;;5002549;28;20694;-47
2022/01/12 06:11:06;;;;;;;46.07;20.63;;;3.80;99.90;;;;;;5003397;28;20908;-48
2022/01/12 06:13:33;;;;;;;49.70;20.60;;;3.80;99.90;;;;;;4999170;28;20262;-48
2022/01/12 06:16:00;;;;;;;50.30;20.53;;;3.80;99.90;;;;;;5019099;28;20216;-48
2022/01/12 06:18:27;;;;;;;44.10;19.47;;;3.80;99.90;;;;;;4998456;28;20201;-47
2022/01/12 06:20:54;;;;;;;41.83;18.97;;;3.80;99.90;;;;;;5025359;28;21062;-48
2022/01/12 06:23:20;;;;;;;49.73;20.77;;;3.80;99.90;;;;;;5005134;28;20225;-48
2022/01/12 06:25:49;;;;;;;46.93;19.97;;;3.80;99.90;;;;;;5017380;28;20212;-48
2022/01/12 06:28:38;;;;;;;47.00;20.43;;;3.80;99.90;;;;;;5028260;28;20242;-48
2022/01/12 06:31:13;;;;;;;41.70;18.80;;;3.80;99.90;;;;;;5021353;28;20217;-48
2022/01/12 06:33:43;;;;;;;45.13;20.57;;;3.80;99.90;;;;;;5014647;28;20219;-49
2022/01/12 06:36:11;;;;;;;45.17;20.27;;;3.80;99.90;;;;;;5039815;28;20201;-48
2022/01/12 06:38:38;;;;;;;52.70;20.47;;;3.80;99.90;;;;;;5012042;28;20204;-48
2022/01/12 06:41:07;;;;;;;46.47;20.53;;;3.80;99.90;;;;;;5039311;28;20205;-49
2022/01/12 06:43:36;;;;;;;47.70;20.33;;;3.80;99.90;;;;;;5027595;28;20675;-48
2022/01/12 06:46:04;;;;;;;46.93;20.97;;;3.80;99.90;;;;;;5030060;28;20217;-48
2022/01/12 06:48:30;;;;;;;47.53;20.50;;;3.80;99.90;;;;;;5036230;28;20207;-48
2022/01/12 06:50:57;;;;;;;47.27;21.27;;;3.80;99.90;;;;;;5020580;28;20210;-48
2022/01/12 06:53:24;;;;;;;45.50;20.77;;;3.80;99.90;;;;;;5025574;28;20232;-47
2022/01/12 06:55:51;;;;;;;53.87;21.97;;;3.80;99.90;;;;;;5033208;28;20293;-50
2022/01/12 06:58:19;;;;;;;57.07;21.27;;;3.80;99.90;;;;;;5041195;28;20208;-48
2022/01/12 07:00:47;;;;;;;47.53;20.77;;;3.80;99.90;;;;;;5022417;28;20499;-48
2022/01/12 07:03:14;;;;;;;44.37;20.23;;;3.80;99.90;;;;;;5039773;28;20599;-48
2022/01/12 07:05:41;;;;;;;45.37;20.13;;;3.80;99.90;;;;;;5008365;28;20213;-50
2022/01/12 07:08:08;;;;;;;57.13;21.13;;;3.90;99.90;;;;;;5052022;28;20207;-48
2022/01/12 07:10:35;;;;;;;47.60;21.27;;;3.90;99.90;;;;;;5014155;28;21372;-48
2022/01/12 07:13:02;;;;;;;49.13;20.23;;;3.90;99.90;;;;;;5037859;28;20799;-48
2022/01/12 07:15:30;;;;;;;44.80;20.50;;;3.90;99.90;;;;;;5038443;28;20212;-47
2022/01/12 07:18:03;;;;;;;54.23;20.40;;;3.90;99.90;;;;;;5043398;28;20400;-48
2022/01/12 07:20:30;;;;;;;50.83;20.57;;;3.90;99.90;;;;;;5006868;28;20216;-47
2022/01/12 07:22:57;;;;;;;49.13;19.60;;;3.90;99.90;;;;;;5035337;28;20325;-48
2022/01/12 07:25:24;;;;;;;47.60;19.67;;;3.90;99.90;;;;;;5048039;28;20727;-49
2022/01/12 07:27:51;;;;;;;48.93;19.87;;;3.90;99.90;;;;;;5023205;28;21216;-48
2022/01/12 07:30:18;;;;;;;52.93;19.87;;;3.90;99.90;;;;;;5031753;28;20205;-44
2022/01/12 07:32:46;;;;;;;49.70;20.40;;;3.90;99.90;;;;;;5030422;28;20333;-44
2022/01/12 07:35:13;;;;;;;47.40;20.83;;;3.90;99.90;;;;;;5033700;28;20215;-51
2022/01/12 07:37:40;;;;;;;47.97;20.33;;;3.90;99.90;;;;;;5028205;28;20212;-50
2022/01/12 07:40:08;;;;;;;42.23;19.37;;;3.90;99.90;;;;;;5045316;28;20246;-51
2022/01/12 07:42:35;;;;;;;52.43;20.40;;;3.90;99.90;;;;;;5032996;28;20229;-51
2022/01/12 07:45:02;;;;;;;45.07;20.87;;;3.90;99.90;;;;;;5052491;28;20753;-51
2022/01/12 07:47:31;;;;;;;52.93;21.13;;;3.90;99.90;;;;;;5039137;28;20340;-50
2022/01/12 07:50:00;;;;;;;45.90;19.50;;;3.90;99.90;;;;;;5041835;28;20815;-51
2022/01/12 07:52:30;;;;;;;48.40;21.20;;;3.90;99.90;;;;;;5032853;28;20237;-50
2022/01/12 07:54:57;;;;;;;45.43;18.60;;;3.90;99.90;;;;;;5050278;28;20340;-51
2022/01/12 07:57:24;;;;;;;45.37;19.73;;;3.90;99.90;;;;;;5037661;28;20577;-49
2022/01/12 07:59:51;;;;;;;49.10;19.90;;;3.90;99.90;;;;;;5033512;28;20550;-51
2022/01/12 08:02:17;;;;;;;43.40;19.13;;;4.00;99.90;;;;;;5045030;28;20228;-51
2022/01/12 08:04:44;;;;;;;50.13;20.13;;;4.00;99.90;;;;;;5046286;28;20306;-51
2022/01/12 08:07:12;;;;;;;46.53;18.83;;;4.00;99.90;;;;;;5038542;28;20216;-51
2022/01/12 08:09:41;;;;;;;45.47;18.93;;;4.00;99.90;;;;;;5047207;28;20201;-51
2022/01/12 08:12:09;;;;;;;64.77;21.60;;;4.00;99.90;;;;;;5039345;28;20745;-51
2022/01/12 08:14:36;;;;;;;50.43;20.13;;;4.00;99.90;;;;;;5050614;28;20201;-51
2022/01/12 08:17:04;;;;;;;46.03;17.97;;;4.00;99.90;;;;;;5027289;28;22007;-50
2022/01/12 08:19:34;;;;;;;51.80;18.90;;;4.00;99.90;;;;;;5046137;28;20245;-51
2022/01/12 08:22:02;;;;;;;53.37;19.27;;;4.00;99.90;;;;;;5034504;28;20217;-51
2022/01/12 08:24:30;;;;;;;41.37;18.10;;;4.00;99.90;;;;;;5053293;28;20228;-50
2022/01/12 08:26:57;;;;;;;50.97;17.03;;;4.00;99.90;;;;;;5048915;28;20223;-50
2022/01/12 08:29:26;;;;;;;38.83;18.27;;;4.10;99.90;;;;;;5037945;28;20687;-51
2022/01/12 08:31:53;;;;;;;53.43;18.70;;;4.10;99.90;;;;;;5045419;28;20637;-50
2022/01/12 08:34:20;;;;;;;55.87;20.30;;;4.10;99.90;;;;;;5034082;28;20402;-51
2022/01/12 08:36:46;;;;;;;43.80;17.63;;;4.10;99.90;;;;;;5053361;28;20217;-51
2022/01/12 08:39:13;;;;;;;50.67;17.07;;;4.10;99.90;;;;;;5025214;28;20485;-50
2022/01/12 08:41:41;;;;;;;53.70;17.63;;;4.10;99.90;;;;;;5054125;28;20839;-51
2022/01/12 08:44:10;;;;;;;42.33;17.90;;;4.10;99.90;;;;;;5033983;28;20915;-50
2022/01/12 08:46:38;;;;;;;40.23;18.57;;;4.10;99.90;;;;;;5055405;28;20230;-51
2022/01/12 08:49:05;;;;;;;61.40;18.53;;;4.10;99.90;;;;;;5036808;28;20208;-51
2022/01/12 08:51:32;;;;;;;53.27;18.50;;;4.20;99.90;;;;;;5048075;28;20212;-52
2022/01/12 08:53:59;;;;;;;48.77;17.60;;;4.10;99.90;;;;;;5040309;28;20212;-51
2022/01/12 08:56:26;;;;;;;48.43;18.37;;;4.20;99.90;;;;;;5047149;28;20207;-52
2022/01/12 08:58:54;;;;;;;56.47;17.57;;;4.10;99.90;;;;;;5034798;28;20591;-50
2022/01/12 09:01:21;;;;;;;43.80;17.83;;;4.10;99.90;;;;;;5037193;28;20326;-52
2022/01/12 09:03:49;;;;;;;41.30;17.57;;;4.10;99.90;;;;;;5041598;28;20208;-49
2022/01/12 09:06:15;;;;;;;58.70;18.83;;;4.10;99.90;;;;;;5039404;28;20387;-51
2022/01/12 09:08:44;;;;;;;47.57;16.47;;;4.20;99.90;;;;;;5054399;28;20201;-51
2022/01/12 09:11:12;;;;;;;41.70;17.07;;;4.20;99.90;;;;;;5029021;28;20209;-50
2022/01/12 09:13:40;;;;;;;38.80;16.93;;;4.30;99.90;;;;;;5054742;28;20671;-51
2022/01/12 09:16:10;;;;;;;40.30;16.83;;;4.30;99.90;;;;;;5024835;28;20606;-51
2022/01/12 09:18:39;;;;;;;38.13;16.53;;;4.30;99.90;;;;;;5052952;28;20304;-50
2022/01/12 09:21:07;;;;;;;35.23;15.60;;;4.30;99.90;;;;;;5030228;28;20773;-51
2022/01/12 09:23:34;;;;;;;43.77;15.93;;;4.30;99.90;;;;;;5045450;28;20213;-51
2022/01/12 09:26:02;;;;;;;39.83;16.27;;;4.30;99.90;;;;;;5032459;28;20545;-51
2022/01/12 09:28:29;;;;;;;42.83;18.57;;;4.40;99.90;;;;;;5049834;28;20315;-51
2022/01/12 09:30:56;;;;;;;38.00;16.70;;;4.40;99.90;;;;;;5034663;28;20668;-50
2022/01/12 09:33:24;;;;;;;39.80;16.83;;;4.40;99.90;;;;;;5047057;28;20428;-51
2022/01/12 09:35:53;;;;;;;39.13;16.30;;;4.40;99.90;;;;;;5032121;28;20213;-50
2022/01/12 09:38:21;;;;;;;39.50;17.43;;;4.40;99.90;;;;;;5037434;28;20426;-51
2022/01/12 09:40:52;;;;;;;33.30;15.63;;;4.50;99.90;;;;;;5048800;28;20220;-50
2022/01/12 09:43:19;;;;;;;37.30;17.63;;;4.50;99.90;;;;;;5038132;28;20220;-50
2022/01/12 09:45:49;;;;;;;39.00;16.97;;;4.50;99.90;;;;;;5038254;28;21595;-51
2022/01/12 09:48:17;;;;;;;34.47;16.93;;;4.60;99.90;;;;;;5041350;28;20324;-51
2022/01/12 09:50:45;;;;;;;40.70;18.17;;;4.60;99.90;;;;;;5047127;28;20205;-50
2022/01/12 09:53:12;;;;;;;36.00;16.50;;;4.60;99.90;;;;;;5038557;28;20221;-51
2022/01/12 09:55:39;;;;;;;35.97;16.23;;;4.60;99.90;;;;;;5054239;28;20299;-50
2022/01/12 09:58:06;;;;;;;34.43;16.20;;;4.60;99.90;;;;;;5030582;28;20324;-51
2022/01/12 10:00:34;;;;;;;32.00;14.93;;;4.60;99.90;;;;;;5054336;28;20221;-50
2022/01/12 10:03:12;;;;;;;40.13;17.13;;;4.60;99.90;;;;;;5033547;28;20745;-50
2022/01/12 10:05:40;;;;;;;34.17;16.47;;;4.60;99.90;;;;;;5046805;28;20207;-49
2022/01/12 10:08:13;;;;;;;37.70;15.83;;;4.60;99.90;;;;;;5029611;28;20877;-52
2022/01/12 10:10:41;;;;;;;37.47;17.23;;;4.70;99.90;;;;;;5045677;28;20251;-51
2022/01/12 10:13:22;;;;;;;36.30;16.33;;;4.70;99.90;;;;;;5031348;28;20287;-51
2022/01/12 10:15:51;;;;;;;32.83;16.33;;;4.80;99.90;;;;;;5048539;28;20680;-51
2022/01/12 10:18:18;;;;;;;37.70;16.80;;;4.80;99.90;;;;;;5015502;28;21231;-51
2022/01/12 10:20:45;;;;;;;36.80;16.57;;;4.80;99.90;;;;;;5051778;28;20228;-50
2022/01/12 10:23:15;;;;;;;36.77;17.03;;;4.90;99.90;;;;;;5041966;28;20516;-51
2022/01/12 10:25:46;;;;;;;34.20;16.23;;;4.90;99.90;;;;;;5050326;28;20207;-50
2022/01/12 10:28:14;;;;;;;36.63;16.07;;;4.90;99.90;;;;;;5016971;28;20579;-51
2022/01/12 10:30:51;;;;;;;31.70;15.17;;;4.90;99.90;;;;;;5048078;28;20234;-50
2022/01/12 10:33:18;;;;;;;30.83;14.47;;;5.00;99.90;;;;;;5043676;28;20230;-51
2022/01/12 10:35:44;;;;;;;35.20;15.53;;;5.00;99.90;;;;;;5053214;28;20654;-47
2022/01/12 10:38:15;;;;;;;31.50;15.37;;;5.00;99.90;;;;;;5037518;28;20675;-48
2022/01/12 10:40:50;;;;;;;28.57;13.80;;;5.10;99.90;;;;;;5045922;28;20221;-47
2022/01/12 10:43:31;;;;;;;29.60;14.60;;;5.10;99.90;;;;;;5047044;28;20736;-48
2022/01/12 10:45:59;;;;;;;29.70;13.57;;;5.10;99.90;;;;;;5030254;28;20481;-48
2022/01/12 10:48:38;;;;;;;28.80;14.73;;;5.10;99.90;;;;;;5037832;28;20212;-48
2022/01/12 10:51:05;;;;;;;29.93;14.43;;;5.10;99.90;;;;;;5043927;28;20830;-48
2022/01/12 10:53:35;;;;;;;29.70;14.00;;;5.20;99.90;;;;;;5040762;28;20232;-48
2022/01/12 10:56:06;;;;;;;34.47;14.77;;;5.20;99.90;;;;;;5049772;28;20197;-49
2022/01/12 10:58:34;;;;;;;33.50;14.67;;;5.20;99.90;;;;;;5036999;28;20208;-48
2022/01/12 11:01:00;;;;;;;33.53;15.23;;;5.30;99.90;;;;;;5023677;28;20322;-48
2022/01/12 11:03:27;;;;;;;30.43;15.67;;;5.30;99.90;;;;;;5036911;28;20296;-48
2022/01/12 11:05:55;;;;;;;34.87;14.27;;;5.30;99.90;;;;;;5045646;28;20704;-47
2022/01/12 11:08:24;;;;;;;25.23;14.43;;;5.40;99.90;;;;;;5044177;28;20212;-49
2022/01/12 11:10:55;;;;;;;31.83;14.80;;;5.40;99.90;;;;;;5037548;28;20208;-48
2022/01/12 11:13:22;;;;;;;35.13;16.07;;;5.50;99.90;;;;;;5051968;28;20265;-48
2022/01/12 11:15:50;;;;;;;33.27;15.07;;;5.50;99.90;;;;;;5029695;28;20212;-47
2022/01/12 11:18:20;;;;;;;34.73;15.33;;;5.50;99.90;;;;;;5048262;28;20413;-48
2022/01/12 11:20:48;;;;;;;31.53;14.70;;;5.50;99.90;;;;;;5037464;28;20220;-48
2022/01/12 11:23:17;;;;;;;27.20;14.17;;;5.40;99.90;;;;;;5039291;28;20236;-48
2022/01/12 11:25:46;;;;;;;35.83;13.97;;;5.40;99.90;;;;;;5042423;28;20327;-47
2022/01/12 11:28:17;;;;;;;30.47;13.47;;;5.40;99.90;;;;;;5044430;28;20197;-45
2022/01/12 11:30:46;;;;;;;21.57;10.43;;;5.30;99.90;;;;;;5033283;28;20584;-46
2022/01/12 11:33:14;;;;;;;32.73;10.47;;;5.20;99.90;;;;;;5039511;28;20326;-46
2022/01/12 11:35:43;;;;;;;44.77;11.23;;;5.20;99.90;;;;;;5039306;28;20205;-46
2022/01/12 11:38:24;;;;;;;21.90;10.80;;;5.20;99.90;;;;;;5049266;28;21112;-45
2022/01/12 11:40:53;;;;;;;22.27;9.53;;;5.10;99.90;;;;;;5047564;28;20246;-46
2022/01/12 11:43:25;;;;;;;21.03;9.17;;;5.00;99.90;;;;;;5048393;28;20290;-46
2022/01/12 11:46:03;;;;;;;23.93;10.67;;;5.00;99.90;;;;;;5051887;28;20571;-48
2022/01/12 11:48:32;;;;;;;21.13;9.67;;;5.10;99.90;;;;;;5038799;28;20421;-49
2022/01/12 11:50:59;;;;;;;24.63;10.30;;;5.10;99.90;;;;;;5042296;28;20598;-48
2022/01/12 11:53:27;;;;;;;24.77;10.57;;;5.20;99.90;;;;;;5038047;28;20318;-48
2022/01/12 11:55:54;;;;;;;21.53;9.33;;;5.20;99.90;;;;;;5049335;28;20678;-48
2022/01/12 11:58:22;;;;;;;23.03;9.93;;;5.20;99.90;;;;;;5041487;28;20255;-48
2022/01/12 12:00:49;;;;;;;21.63;10.33;;;5.20;99.90;;;;;;5051615;28;20225;-48
2022/01/12 12:03:19;;;;;;;25.20;9.47;;;5.20;99.90;;;;;;5021587;28;20232;-48
2022/01/12 12:05:46;;;;;;;22.13;9.67;;;5.20;99.90;;;;;;5054242;28;20290;-51
2022/01/12 12:08:23;;;;;;;19.67;9.10;;;5.20;99.90;;;;;;5037122;28;20259;-48
2022/01/12 12:10:52;;;;;;;25.43;8.67;;;5.10;99.90;;;;;;5043049;28;20555;-48
2022/01/12 12:13:23;;;;;;;21.17;9.20;;;5.20;99.90;;;;;;5038997;28;20254;-48
2022/01/12 12:15:51;;;;;;;27.10;8.73;;;5.20;99.90;;;;;;5051623;28;20663;-48
2022/01/12 12:18:18;;;;;;;23.93;9.43;;;5.20;99.90;;;;;;5036003;28;20212;-48
2022/01/12 12:20:45;;;;;;;26.53;10.50;;;5.30;99.90;;;;;;5028822;28;20228;-48
2022/01/12 12:23:12;;;;;;;24.73;9.87;;;5.20;99.90;;;;;;5030377;28;20235;-48
2022/01/12 12:25:39;;;;;;;26.30;9.77;;;5.20;99.90;;;;;;5055098;28;20358;-48
2022/01/12 12:28:07;;;;;;;28.23;10.67;;;5.20;99.90;;;;;;5036894;28;20318;-47
2022/01/12 12:30:38;;;;;;;22.47;9.67;;;5.30;99.90;;;;;;5050874;28;20205;-47
2022/01/12 12:33:07;;;;;;;29.70;9.60;;;5.30;99.90;;;;;;5042460;28;20224;-48
2022/01/12 12:35:35;;;;;;;26.73;9.53;;;5.30;99.90;;;;;;5047400;28;20223;-48
2022/01/12 12:38:05;;;;;;;20.70;9.33;;;5.30;99.90;;;;;;5038445;28;20840;-46
2022/01/12 12:40:35;;;;;;;25.87;8.97;;;5.30;99.90;;;;;;5051078;28;20410;-46
2022/01/12 12:43:05;;;;;;;22.23;8.40;;;5.30;99.90;;;;;;5033639;28;21235;-46
2022/01/12 12:45:42;;;;;;;23.20;9.60;;;5.30;99.90;;;;;;5044173;28;20497;-46
2022/01/12 12:48:11;;;;;;;22.20;9.23;;;5.30;99.90;;;;;;5048260;28;20201;-46
2022/01/12 12:50:39;;;;;;;21.27;8.83;;;5.30;99.90;;;;;;5037883;28;20218;-46
2022/01/12 12:53:06;;;;;;;23.93;9.33;;;5.30;99.90;;;;;;5014993;28;20607;-46
2022/01/12 12:55:36;;;;;;;21.97;9.53;;;5.40;99.90;;;;;;5034167;28;20320;-46
2022/01/12 12:58:04;;;;;;;19.23;8.50;;;5.40;99.90;;;;;;5030309;28;20224;-46
2022/01/12 13:00:33;;;;;;;19.13;8.77;;;5.40;99.90;;;;;;5036413;28;20727;-46
2022/01/12 13:03:02;;;;;;;22.93;8.17;;;5.40;99.90;;;;;;5022374;28;20902;-46
2022/01/12 13:05:31;;;;;;;20.97;6.90;;;5.30;99.90;;;;;;5014444;28;20304;-47
2022/01/12 13:07:59;;;;;;;23.83;7.50;;;5.30;99.90;;;;;;5023481;28;20216;-47
2022/01/12 13:10:27;;;;;;;18.47;8.23;;;5.30;99.90;;;;;;5018172;28;20698;-46
2022/01/12 13:12:56;;;;;;;21.13;7.63;;;5.40;99.90;;;;;;5028187;28;21086;-46
2022/01/12 13:15:25;;;;;;;18.87;8.90;;;5.30;99.90;;;;;;5036012;28;20922;-46
2022/01/12 13:18:02;;;;;;;23.40;8.03;;;5.40;99.90;;;;;;5029765;28;20212;-46
2022/01/12 13:23:15;;;;;;;20.50;8.37;;;5.40;99.90;;;;;;5034765;28;20242;-46
2022/01/12 13:25:43;;;;;;;17.77;8.13;;;5.50;99.90;;;;;;5018624;28;21102;-46
2022/01/12 13:28:10;;;;;;;17.17;8.90;;;5.40;99.90;;;;;;5035622;28;20688;-46
2022/01/12 13:30:49;;;;;;;27.60;8.47;;;5.40;99.90;;;;;;5026643;28;20295;-46
2022/01/12 13:33:25;;;;;;;19.83;8.93;;;5.40;99.90;;;;;;5028130;28;20239;-46
2022/01/12 13:35:52;;;;;;;19.40;8.33;;;5.40;99.90;;;;;;5037884;28;20208;-46
2022/01/12 13:38:27;;;;;;;23.93;8.83;;;5.30;99.90;;;;;;5004461;28;20217;-46
2022/01/12 13:40:55;;;;;;;25.67;10.73;;;5.30;99.90;;;;;;5028448;28;20234;-46
2022/01/12 13:43:23;;;;;;;21.93;9.07;;;5.30;99.90;;;;;;5032957;28;20224;-46
2022/01/12 13:45:59;;;;;;;20.23;8.90;;;5.30;99.90;;;;;;5033802;28;20215;-46
2022/01/12 13:48:31;;;;;;;18.37;8.77;;;5.30;99.90;;;;;;5045849;28;20202;-46
2022/01/12 13:51:02;;;;;;;20.97;8.67;;;5.30;99.90;;;;;;5039632;28;20213;-46
2022/01/12 13:53:34;;;;;;;21.50;9.90;;;5.30;99.90;;;;;;5008047;28;20214;-46
2022/01/12 13:56:02;;;;;;;17.73;8.70;;;5.30;99.90;;;;;;5030409;28;20201;-46